Time;durP1;ratioP1;P1;durP2;ratioP2;P2;SDS_P1;SDS_P2;PMS_P1;PMS_P2;Temp;Humidity;BMP_temperature;BMP_pressure;BME280_temperature;BME280_humidity;BME280_pressure;Samples;Min_cycle;Max_cycle;Signal;HPM_P1;HPM_P2
2022/04/27 00:01:25;;;;;;;5.27;4.50;;;12.00;1.00;;;;;;5093571;28;20447;-77
2022/04/27 00:03:53;;;;;;;7.50;4.60;;;11.90;99.90;;;;;;5093772;28;20963;-77
2022/04/27 00:06:19;;;;;;;5.33;4.60;;;12.00;1.00;;;;;;5093429;28;20824;-77
2022/04/27 00:08:46;;;;;;;4.53;4.13;;;11.90;1.00;;;;;;5093587;28;20448;-76
2022/04/27 00:11:15;;;;;;;4.90;4.50;;;11.80;1.00;;;;;;5093669;28;20486;-76
2022/04/27 00:13:42;;;;;;;6.43;5.00;;;11.80;1.00;;;;;;5094128;28;20495;-76
2022/04/27 00:16:09;;;;;;;5.43;4.83;;;11.70;1.00;;;;;;5093853;28;20486;-77
2022/04/27 00:18:36;;;;;;;8.03;5.00;;;11.70;1.00;;;;;;5094482;28;20472;-76
2022/04/27 00:21:02;;;;;;;5.33;4.30;;;11.60;1.00;;;;;;5095237;28;20452;-77
2022/04/27 00:23:30;;;;;;;5.83;4.90;;;11.60;1.00;;;;;;5097680;28;20467;-76
2022/04/27 00:25:57;;;;;;;6.57;5.70;;;11.50;1.00;;;;;;5098821;28;20451;-76
2022/04/27 00:28:25;;;;;;;7.93;5.07;;;11.50;1.00;;;;;;5099194;28;20958;-76
2022/04/27 00:30:52;;;;;;;9.23;5.37;;;11.40;1.00;;;;;;5095232;28;20439;-76
2022/04/27 00:33:18;;;;;;;8.17;4.90;;;11.40;1.00;;;;;;5095244;28;20547;-77
2022/04/27 00:35:45;;;;;;;5.60;5.10;;;11.40;1.00;;;;;;5097792;28;20497;-77
2022/04/27 00:38:12;;;;;;;8.67;4.60;;;11.30;1.00;;;;;;5097596;28;20829;-76
2022/04/27 00:40:38;;;;;;;5.60;5.00;;;11.30;1.00;;;;;;5097233;28;20479;-76
2022/04/27 00:43:05;;;;;;;7.17;4.80;;;11.30;1.00;;;;;;5097023;28;20485;-76
2022/04/27 00:45:33;;;;;;;5.60;4.80;;;11.30;1.00;;;;;;5097261;28;20447;-77
2022/04/27 00:47:59;;;;;;;7.20;5.10;;;11.20;1.00;;;;;;5097774;28;20448;-77
2022/04/27 00:50:27;;;;;;;5.53;5.03;;;11.10;1.00;;;;;;5098106;28;20475;-76
2022/04/27 00:52:54;;;;;;;11.50;5.20;;;11.20;1.00;;;;;;5099741;28;20460;-77
2022/04/27 00:55:21;;;;;;;8.43;5.87;;;11.10;1.00;;;;;;5099271;28;20510;-76
2022/04/27 00:57:47;;;;;;;8.20;5.47;;;11.10;1.00;;;;;;5097561;28;20872;-78
2022/04/27 01:00:15;;;;;;;6.13;5.63;;;11.10;1.00;;;;;;5097817;28;20700;-77
2022/04/27 01:02:43;;;;;;;6.70;5.13;;;11.20;1.00;;;;;;5097444;28;20470;-77
2022/04/27 01:05:11;;;;;;;6.50;5.30;;;11.00;1.00;;;;;;5097035;28;20875;-77
2022/04/27 01:07:40;;;;;;;5.70;5.17;;;10.90;1.00;;;;;;5096916;28;20486;-77
2022/04/27 01:10:08;;;;;;;6.10;5.40;;;10.90;1.00;;;;;;5097017;28;20423;-77
2022/04/27 01:12:36;;;;;;;7.87;5.37;;;10.90;1.00;;;;;;5097030;28;20556;-76
2022/04/27 01:15:04;;;;;;;6.07;5.47;;;10.90;1.00;;;;;;5097658;28;20439;-77
2022/04/27 01:17:31;;;;;;;32.17;20.20;;;10.80;1.00;;;;;;5096869;28;20484;-77
2022/04/27 01:19:59;;;;;;;6.87;6.20;;;10.80;1.00;;;;;;5095957;28;20827;-77
2022/04/27 01:22:29;;;;;;;12.97;9.10;;;10.80;1.00;;;;;;5096564;28;20464;-77
2022/04/27 01:24:56;;;;;;;15.10;11.00;;;10.90;1.00;;;;;;5096095;28;20440;-77
2022/04/27 01:27:23;;;;;;;8.60;7.60;;;10.80;1.00;;;;;;5096180;28;20521;-77
2022/04/27 01:29:54;;;;;;;6.60;5.60;;;10.80;1.00;;;;;;5096317;28;20467;-77
2022/04/27 01:32:21;;;;;;;8.60;5.57;;;10.60;1.00;;;;;;5096203;28;20912;-77
2022/04/27 01:34:48;;;;;;;6.60;5.50;;;10.50;1.00;;;;;;5095794;28;20970;-77
2022/04/27 01:40:07;;;;;;;7.50;6.77;;;10.40;1.00;;;;;;5074852;28;20555;-77
2022/04/27 01:42:33;;;;;;;6.50;5.90;;;10.40;1.00;;;;;;5095701;28;20487;-77
2022/04/27 01:45:02;;;;;;;7.20;5.73;;;10.40;1.00;;;;;;5095199;28;20448;-77
2022/04/27 01:47:28;;;;;;;8.10;7.13;;;10.30;1.00;;;;;;5095862;28;20828;-78
2022/04/27 01:49:55;;;;;;;14.13;6.60;;;10.40;1.00;;;;;;5095805;28;20493;-77
2022/04/27 01:55:08;;;;;;;6.93;6.33;;;10.20;1.00;;;;;;5095550;28;20801;-77
2022/04/27 01:57:35;;;;;;;5.83;5.20;;;10.10;1.00;;;;;;5095523;28;20495;-76
2022/04/27 02:00:01;;;;;;;9.87;6.30;;;10.10;1.00;;;;;;5095307;28;20560;-77
2022/04/27 02:02:28;;;;;;;7.10;6.03;;;10.10;1.90;;;;;;5095283;28;20476;-78
2022/04/27 02:04:54;;;;;;;8.57;7.40;;;9.90;41.40;;;;;;5095197;28;20479;-77
2022/04/27 02:07:21;;;;;;;7.43;6.73;;;10.00;18.10;;;;;;5095157;28;20443;-76
2022/04/27 02:09:47;;;;;;;8.60;7.60;;;9.90;64.70;;;;;;5095145;28;20435;-76
2022/04/27 02:12:15;;;;;;;9.57;7.17;;;10.20;99.90;;;;;;5095036;28;20464;-77
2022/04/27 02:14:42;;;;;;;10.23;7.17;;;10.00;21.00;;;;;;5095020;28;20989;-77
2022/04/27 02:17:09;;;;;;;8.40;6.97;;;9.90;99.90;;;;;;5095081;28;20475;-76
2022/04/27 02:19:37;;;;;;;8.53;6.73;;;9.80;99.90;;;;;;5095370;28;20875;-77
2022/04/27 02:22:04;;;;;;;11.37;8.07;;;9.60;99.90;;;;;;5095073;28;20841;-76
2022/04/27 02:24:31;;;;;;;8.30;7.50;;;9.80;96.40;;;;;;5095436;28;20443;-77
2022/04/27 02:26:58;;;;;;;7.57;6.73;;;9.80;73.90;;;;;;5095547;28;20505;-76
2022/04/27 02:29:26;;;;;;;8.63;6.97;;;9.60;99.90;;;;;;5095374;28;20882;-76
2022/04/27 02:31:53;;;;;;;8.23;7.10;;;9.60;99.90;;;;;;5095433;28;20492;-76
2022/04/27 02:34:19;;;;;;;7.77;6.80;;;9.70;99.90;;;;;;5095238;28;20997;-76
2022/04/27 02:36:46;;;;;;;8.70;7.57;;;;;;;;;;5094937;28;20440;-76
2022/04/27 02:39:13;;;;;;;10.23;7.17;;;9.30;1.00;;;;;;5095219;28;20865;-77
2022/04/27 02:41:40;;;;;;;9.17;7.00;;;9.50;1.00;;;;;;5094674;28;20503;-76
2022/04/27 02:44:07;;;;;;;8.97;6.80;;;9.50;99.90;;;;;;5095219;28;20432;-77
2022/04/27 02:46:37;;;;;;;8.40;6.87;;;9.50;99.90;;;;;;5095215;28;20499;-77
2022/04/27 02:51:51;;;;;;;7.90;7.03;;;9.40;99.90;;;;;;5094208;28;20787;-77
2022/04/27 02:54:19;;;;;;;6.87;6.17;;;9.40;99.90;;;;;;5097893;28;20511;-76
2022/04/27 02:56:46;;;;;;;7.40;5.97;;;;;;;;;;5094634;28;20452;-76
2022/04/27 02:59:12;;;;;;;8.20;7.20;;;9.30;99.90;;;;;;5094876;28;20450;-77
2022/04/27 03:01:40;;;;;;;9.97;6.30;;;9.30;99.90;;;;;;5095039;28;20479;-76
2022/04/27 03:04:07;;;;;;;10.07;6.63;;;9.20;99.90;;;;;;5095139;28;20482;-76
2022/04/27 03:06:34;;;;;;;9.80;6.50;;;9.30;99.90;;;;;;5095629;28;20447;-76
2022/04/27 03:09:00;;;;;;;7.57;6.77;;;9.10;99.90;;;;;;5095692;28;20481;-76
2022/04/27 03:11:27;;;;;;;10.63;7.10;;;9.10;99.90;;;;;;5095830;28;20954;-76
2022/04/27 03:13:53;;;;;;;10.73;6.57;;;9.10;99.90;;;;;;5095502;28;20486;-77
2022/04/27 03:16:20;;;;;;;9.60;7.23;;;9.10;99.90;;;;;;5096887;28;20448;-76
2022/04/27 03:18:48;;;;;;;7.70;6.90;;;9.10;99.90;;;;;;5099775;28;20422;-76
2022/04/27 03:21:15;;;;;;;10.57;7.90;;;9.20;99.90;;;;;;5099219;28;20990;-76
2022/04/27 03:23:41;;;;;;;7.50;6.73;;;9.20;99.90;;;;;;5101666;28;20464;-76
2022/04/27 03:26:08;;;;;;;11.70;7.40;;;9.10;99.90;;;;;;5102145;28;20480;-76
2022/04/27 03:28:35;;;;;;;10.97;9.20;;;9.00;99.90;;;;;;5102814;28;20448;-76
2022/04/27 03:31:01;;;;;;;8.53;6.77;;;8.90;99.90;;;;;;5099675;28;20474;-76
2022/04/27 03:33:28;;;;;;;8.37;6.37;;;8.90;99.90;;;;;;5098484;28;20500;-76
2022/04/27 03:35:56;;;;;;;8.80;6.80;;;9.00;99.90;;;;;;5098310;28;20444;-78
2022/04/27 03:38:23;;;;;;;9.47;7.00;;;9.00;99.90;;;;;;5098541;28;20447;-76
2022/04/27 03:40:50;;;;;;;8.60;7.10;;;8.90;99.90;;;;;;5098265;28;20507;-76
2022/04/27 03:43:16;;;;;;;8.80;7.43;;;8.90;99.90;;;;;;5095861;28;20511;-76
2022/04/27 03:45:43;;;;;;;9.20;7.03;;;8.90;99.90;;;;;;5095635;28;20448;-76
2022/04/27 03:48:10;;;;;;;8.63;7.73;;;9.00;99.90;;;;;;5094664;28;20443;-77
2022/04/27 03:50:36;;;;;;;10.20;8.27;;;8.90;99.90;;;;;;5095769;28;20799;-76
2022/04/27 03:53:04;;;;;;;11.90;7.20;;;8.90;99.90;;;;;;5100007;28;20471;-78
2022/04/27 03:55:33;;;;;;;9.10;6.80;;;8.90;99.90;;;;;;5102429;28;20452;-77
2022/04/27 03:58:00;;;;;;;14.20;10.50;;;8.90;99.90;;;;;;5102005;28;20478;-77
2022/04/27 04:00:27;;;;;;;8.10;7.30;;;8.90;99.90;;;;;;5100447;28;20582;-77
2022/04/27 04:02:54;;;;;;;9.00;7.17;;;9.10;99.90;;;;;;5098585;28;20474;-76
2022/04/27 04:05:20;;;;;;;9.90;7.60;;;9.00;99.90;;;;;;5097869;28;20462;-76
2022/04/27 04:07:47;;;;;;;9.30;7.77;;;9.10;99.90;;;;;;5095780;28;20474;-76
2022/04/27 04:10:15;;;;;;;9.83;7.90;;;8.80;99.90;;;;;;5099355;28;20466;-78
2022/04/27 04:12:44;;;;;;;7.50;6.50;;;9.10;35.70;;;;;;5101703;28;21013;-77
2022/04/27 04:15:11;;;;;;;12.40;7.73;;;9.00;33.90;;;;;;5102013;28;20931;-77
2022/04/27 04:17:40;;;;;;;10.23;7.73;;;9.00;44.90;;;;;;5102050;28;20542;-77
2022/04/27 04:20:08;;;;;;;10.43;8.10;;;9.10;49.90;;;;;;5103228;28;20418;-76
2022/04/27 04:22:35;;;;;;;9.40;6.80;;;9.10;1.00;;;;;;5099388;28;20471;-76
2022/04/27 04:30:31;;;;;;;11.07;7.53;;;9.10;1.00;;;;;;5099490;28;20453;-78
2022/04/27 04:32:58;;;;;;;9.07;7.10;;;9.20;1.00;;;;;;5099743;28;20446;-77
2022/04/27 04:35:25;;;;;;;10.33;8.30;;;9.20;1.00;;;;;;5099668;28;20834;-77
2022/04/27 04:37:52;;;;;;;12.37;8.50;;;9.20;1.00;;;;;;5098895;28;20501;-77
2022/04/27 04:40:18;;;;;;;10.20;8.13;;;9.20;1.00;;;;;;5100278;28;20468;-77
2022/04/27 04:42:46;;;;;;;18.60;8.43;;;9.30;1.00;;;;;;5124956;22;20482;-80
2022/04/27 04:45:13;;;;;;;10.37;7.77;;;9.40;1.00;;;;;;5108133;28;20444;-79
2022/04/27 04:47:42;;;;;;;8.10;7.20;;;9.40;1.00;;;;;;5107594;28;20478;-78
2022/04/27 04:50:09;;;;;;;8.30;6.40;;;9.40;1.00;;;;;;5106151;28;20439;-78
2022/04/27 04:52:36;;;;;;;8.73;7.17;;;9.50;1.00;;;;;;5110580;28;20442;-78
2022/04/27 04:55:02;;;;;;;8.93;8.03;;;9.60;1.00;;;;;;5106413;28;20443;-77
2022/04/27 04:57:29;;;;;;;8.87;7.93;;;9.90;44.10;;;;;;5107314;28;20440;-79
2022/04/27 04:59:58;;;;;;;11.13;8.53;;;9.60;1.00;;;;;;5108558;28;20476;-77
2022/04/27 05:02:24;;;;;;;10.40;8.23;;;9.70;1.00;;;;;;5102072;28;21034;-78
2022/04/27 05:04:51;;;;;;;8.83;7.50;;;9.70;1.00;;;;;;5101705;28;20559;-79
2022/04/27 05:07:18;;;;;;;11.70;7.30;;;9.80;1.00;;;;;;5103125;28;20457;-79
2022/04/27 05:09:45;;;;;;;11.13;7.87;;;9.80;1.00;;;;;;5099817;28;20837;-77
2022/04/27 05:12:12;;;;;;;8.77;6.67;;;9.90;1.00;;;;;;5099489;28;20463;-78
2022/04/27 05:14:39;;;;;;;9.53;7.77;;;10.00;1.00;;;;;;5099944;28;20447;-78
2022/04/27 05:17:07;;;;;;;10.70;7.43;;;10.10;1.00;;;;;;5106212;28;20443;-78
2022/04/27 05:19:33;;;;;;;11.33;8.47;;;10.30;1.00;;;;;;5100610;28;20510;-77
2022/04/27 05:22:00;;;;;;;8.90;7.10;;;10.30;1.00;;;;;;5099534;28;20476;-79
2022/04/27 05:24:26;;;;;;;8.80;6.90;;;10.40;1.00;;;;;;5098384;28;20446;-78
2022/04/27 05:26:53;;;;;;;7.70;6.80;;;10.60;1.00;;;;;;5100214;28;20472;-78
2022/04/27 05:32:10;;;;;;;13.33;7.93;;;10.60;1.00;;;;;;5073820;28;20450;-78
2022/04/27 05:34:37;;;;;;;10.10;7.10;;;10.50;1.00;;;;;;5103744;28;20430;-77
2022/04/27 05:37:04;;;;;;;8.37;6.37;;;10.50;1.00;;;;;;5119730;28;20458;-77
2022/04/27 05:39:31;;;;;;;8.00;7.30;;;10.80;1.00;;;;;;5114951;28;20436;-76
2022/04/27 05:41:58;;;;;;;11.03;7.50;;;11.10;1.00;;;;;;5114903;28;20479;-76
2022/04/27 05:44:26;;;;;;;16.33;6.50;;;10.90;1.00;;;;;;5108729;28;21000;-77
2022/04/27 05:46:54;;;;;;;8.87;6.27;;;11.10;1.00;;;;;;5111153;28;20459;-79
2022/04/27 05:49:22;;;;;;;13.13;6.77;;;11.00;1.00;;;;;;5104554;28;20439;-77
2022/04/27 05:51:49;;;;;;;10.00;6.53;;;10.90;1.00;;;;;;5109553;28;20447;-78
2022/04/27 05:54:16;;;;;;;12.13;8.20;;;10.80;99.90;;;;;;5109594;28;20452;-78
2022/04/27 05:56:43;;;;;;;6.90;5.97;;;10.80;99.90;;;;;;5096657;28;20875;-78
2022/04/27 05:59:11;;;;;;;9.33;6.17;;;10.90;99.90;;;;;;5096015;28;20444;-79
2022/04/27 06:01:38;;;;;;;7.67;6.00;;;11.10;99.90;;;;;;5096255;28;20480;-78
2022/04/27 06:04:05;;;;;;;11.00;7.60;;;11.20;99.90;;;;;;5096426;28;20634;-78
2022/04/27 06:06:33;;;;;;;6.93;6.13;;;11.30;99.90;;;;;;5097692;28;20480;-78
2022/04/27 06:09:00;;;;;;;11.17;6.20;;;11.40;99.90;;;;;;5099334;28;20456;-79
2022/04/27 06:11:26;;;;;;;8.47;6.20;;;11.40;99.90;;;;;;5099979;28;20468;-78
2022/04/27 06:13:53;;;;;;;8.93;6.57;;;11.50;99.90;;;;;;5099273;28;20471;-79
2022/04/27 06:16:22;;;;;;;11.10;7.60;;;11.50;99.90;;;;;;5099372;28;20471;-78
2022/04/27 06:18:51;;;;;;;11.00;7.50;;;11.40;99.90;;;;;;5096921;28;20884;-78
2022/04/27 06:21:18;;;;;;;11.83;7.40;;;11.40;99.90;;;;;;5094179;28;20506;-77
2022/04/27 06:23:46;;;;;;;11.00;6.60;;;11.60;99.90;;;;;;5094552;28;20537;-78
2022/04/27 06:26:14;;;;;;;8.97;6.20;;;11.80;99.90;;;;;;5094572;28;20513;-77
2022/04/27 06:28:40;;;;;;;8.27;6.57;;;11.90;99.90;;;;;;5095051;28;20458;-78
2022/04/27 06:31:07;;;;;;;12.63;7.93;;;12.00;99.90;;;;;;5103038;28;20471;-78
2022/04/27 06:33:33;;;;;;;10.53;7.00;;;12.10;99.90;;;;;;5112050;28;20497;-78
2022/04/27 06:36:00;;;;;;;10.87;7.70;;;12.10;99.90;;;;;;5102279;28;20440;-78
2022/04/27 06:38:27;;;;;;;10.93;7.70;;;12.00;99.90;;;;;;5100160;28;20451;-78
2022/04/27 06:40:54;;;;;;;10.10;6.50;;;11.90;99.90;;;;;;5109456;28;20479;-78
2022/04/27 06:43:21;;;;;;;10.40;8.20;;;11.80;99.90;;;;;;5087880;28;140703;-79
2022/04/27 06:45:48;;;;;;;15.77;7.90;;;11.70;99.90;;;;;;5105157;28;20894;-77
2022/04/27 06:48:15;;;;;;;10.20;8.27;;;12.00;99.90;;;;;;5095811;28;20958;-77
2022/04/27 06:50:41;;;;;;;10.30;7.37;;;12.00;99.90;;;;;;5096557;28;20450;-77
2022/04/27 06:53:09;;;;;;;10.80;7.07;;;12.00;99.90;;;;;;5100129;28;20467;-78
2022/04/27 06:55:36;;;;;;;12.33;7.67;;;12.20;99.90;;;;;;5118293;28;20767;-78
2022/04/27 06:58:04;;;;;;;17.00;9.10;;;12.20;99.90;;;;;;5115828;28;20435;-78
2022/04/27 07:00:30;;;;;;;9.40;7.53;;;12.10;99.90;;;;;;5105786;28;20933;-78
2022/04/27 07:02:57;;;;;;;11.97;7.83;;;12.20;99.90;;;;;;5102689;28;20850;-79
2022/04/27 07:05:25;;;;;;;8.80;7.50;;;12.10;99.90;;;;;;5102585;28;20452;-79
2022/04/27 07:07:52;;;;;;;10.73;8.17;;;12.20;99.90;;;;;;5102048;28;20858;-78
2022/04/27 07:10:19;;;;;;;9.67;8.17;;;12.30;99.90;;;;;;5101261;28;20448;-78
2022/04/27 07:12:47;;;;;;;11.43;8.30;;;12.40;99.90;;;;;;5098973;28;20884;-78
2022/04/27 07:15:14;;;;;;;10.17;7.20;;;12.50;99.90;;;;;;5097734;28;20812;-78
2022/04/27 07:17:41;;;;;;;10.67;7.93;;;12.60;99.90;;;;;;5097441;28;20858;-78
2022/04/27 07:20:08;;;;;;;8.40;6.97;;;12.80;99.90;;;;;;5099071;28;20494;-78
2022/04/27 07:22:35;;;;;;;9.90;6.90;;;12.90;99.90;;;;;;5101235;28;20495;-78
2022/04/27 07:25:02;;;;;;;7.83;7.10;;;13.00;99.90;;;;;;5101903;28;20448;-78
2022/04/27 07:27:31;;;;;;;7.97;6.70;;;12.80;99.90;;;;;;5099273;28;20448;-79
2022/04/27 07:29:58;;;;;;;8.60;6.77;;;12.90;1.00;;;;;;5103476;28;20810;-78
2022/04/27 07:32:26;;;;;;;10.83;6.50;;;12.70;99.90;;;;;;5102317;28;20468;-78
2022/04/27 07:34:52;;;;;;;7.10;5.50;;;13.00;99.90;;;;;;5099785;28;20422;-78
2022/04/27 07:37:19;;;;;;;7.90;7.10;;;13.00;99.90;;;;;;5101410;28;20487;-78
2022/04/27 07:39:46;;;;;;;9.57;6.90;;;13.10;99.90;;;;;;5101670;28;20948;-78
2022/04/27 07:42:13;;;;;;;8.57;7.10;;;12.90;99.90;;;;;;5100149;28;20487;-78
2022/04/27 07:44:39;;;;;;;9.40;6.70;;;12.80;99.90;;;;;;5098648;28;20838;-78
2022/04/27 07:47:07;;;;;;;11.90;7.50;;;12.80;99.90;;;;;;5104837;28;20467;-78
2022/04/27 07:49:35;;;;;;;9.73;7.10;;;13.00;99.90;;;;;;5104072;28;20422;-79
2022/04/27 07:52:02;;;;;;;9.60;6.90;;;13.20;99.90;;;;;;5096290;28;21111;-77
2022/04/27 07:54:28;;;;;;;13.47;7.93;;;13.40;99.90;;;;;;5102206;28;20448;-78
2022/04/27 07:56:55;;;;;;;6.07;5.47;;;13.50;99.90;;;;;;5102949;28;20452;-78
2022/04/27 07:59:22;;;;;;;5.67;5.13;;;13.40;99.90;;;;;;5097548;28;20470;-78
2022/04/27 08:01:48;;;;;;;9.43;5.80;;;13.50;1.00;;;;;;5099669;28;20476;-79
2022/04/27 08:04:16;;;;;;;5.97;5.13;;;13.40;99.90;;;;;;5102076;28;20424;-78
2022/04/27 08:06:44;;;;;;;6.50;5.90;;;13.50;99.90;;;;;;5105169;28;20486;-78
2022/04/27 08:09:11;;;;;;;6.50;4.83;;;13.50;99.90;;;;;;5104399;28;20418;-79
2022/04/27 08:11:39;;;;;;;8.33;4.30;;;13.70;1.00;;;;;;5098110;28;20478;-78
2022/04/27 08:14:06;;;;;;;10.57;5.50;;;13.90;1.00;;;;;;5107556;28;20486;-78
2022/04/27 08:16:33;;;;;;;7.37;4.80;;;13.90;99.90;;;;;;5100927;28;20869;-77
2022/04/27 08:18:59;;;;;;;4.73;4.13;;;13.90;99.90;;;;;;5096456;28;20441;-78
2022/04/27 08:21:27;;;;;;;4.10;3.80;;;14.00;99.90;;;;;;5098464;28;20541;-78
2022/04/27 08:23:55;;;;;;;4.73;3.43;;;14.10;99.90;;;;;;5096243;28;20880;-77
2022/04/27 08:26:21;;;;;;;5.97;3.90;;;14.20;99.90;;;;;;5096028;28;20479;-78
2022/04/27 08:28:48;;;;;;;4.00;3.07;;;14.30;99.90;;;;;;5098764;28;20818;-78
2022/04/27 08:31:17;;;;;;;3.30;3.00;;;14.00;99.90;;;;;;5101861;28;20981;-79
2022/04/27 08:33:43;;;;;;;4.67;4.10;;;14.30;99.90;;;;;;5096481;28;20496;-79
2022/04/27 08:36:10;;;;;;;4.90;3.77;;;14.20;99.90;;;;;;5098807;28;20466;-78
2022/04/27 08:38:37;;;;;;;4.90;4.07;;;14.20;99.90;;;;;;5098099;28;20877;-77
2022/04/27 08:41:05;;;;;;;4.00;3.60;;;14.30;99.90;;;;;;5099869;28;20452;-78
2022/04/27 08:43:32;;;;;;;4.57;3.67;;;14.20;99.90;;;;;;5102445;28;20528;-77
2022/04/27 08:46:03;;;;;;;4.90;4.03;;;14.40;99.90;;;;;;5099894;28;20471;-77
2022/04/27 08:48:30;;;;;;;4.20;3.30;;;14.60;99.90;;;;;;5099118;28;20428;-77
2022/04/27 08:50:57;;;;;;;7.50;3.80;;;14.70;99.90;;;;;;5102013;28;20482;-77
2022/04/27 08:53:24;;;;;;;5.70;3.60;;;14.80;99.90;;;;;;5101653;28;20464;-78
2022/04/27 08:55:53;;;;;;;3.87;3.57;;;14.70;99.90;;;;;;5100076;28;20425;-78
2022/04/27 08:58:22;;;;;;;3.47;3.17;;;14.70;99.90;;;;;;5100622;28;20449;-78
2022/04/27 09:00:50;;;;;;;4.83;3.50;;;14.80;99.90;;;;;;5100211;28;20433;-78
2022/04/27 09:03:24;;;;;;;6.10;2.77;;;14.90;99.90;;;;;;5098310;28;20538;-78
2022/04/27 09:05:51;;;;;;;3.93;3.30;;;14.80;99.90;;;;;;5100035;28;20440;-78
2022/04/27 09:08:18;;;;;;;3.47;3.17;;;14.70;99.90;;;;;;5103675;28;20445;-78
2022/04/27 09:10:45;;;;;;;4.50;3.10;;;14.70;99.90;;;;;;5107453;28;20833;-78
2022/04/27 09:13:11;;;;;;;4.93;2.80;;;14.60;99.90;;;;;;5106700;28;20544;-78
2022/04/27 09:15:41;;;;;;;3.30;2.57;;;14.70;99.90;;;;;;5109772;28;20433;-78
2022/04/27 09:21:00;;;;;;;3.00;2.80;;;15.00;99.90;;;;;;5098770;28;20411;-78
2022/04/27 09:23:29;;;;;;;4.10;3.70;;;15.20;99.90;;;;;;5098890;28;20484;-78
2022/04/27 09:25:57;;;;;;;3.83;3.53;;;15.30;99.90;;;;;;5101379;28;20453;-78
2022/04/27 09:28:29;;;;;;;4.30;3.90;;;15.00;1.00;;;;;;5109307;28;20812;-78
2022/04/27 09:30:57;;;;;;;5.53;2.70;;;15.20;99.90;;;;;;5106668;28;20433;-78
2022/04/27 09:33:34;;;;;;;5.23;4.70;;;15.10;99.90;;;;;;5113766;28;20548;-79
2022/04/27 09:36:02;;;;;;;4.20;2.70;;;15.30;99.90;;;;;;5103085;28;20457;-79
2022/04/27 09:38:39;;;;;;;3.80;3.50;;;15.30;99.90;;;;;;5098606;28;20457;-79
2022/04/27 09:41:06;;;;;;;4.40;3.10;;;15.30;99.90;;;;;;5101545;28;20427;-80
2022/04/27 09:43:44;;;;;;;3.70;3.33;;;15.40;99.90;;;;;;5102802;28;20487;-79
2022/04/27 09:46:17;;;;;;;4.63;3.67;;;15.30;99.90;;;;;;5104070;28;20450;-78
2022/04/27 09:48:46;;;;;;;3.30;3.00;;;15.40;99.90;;;;;;5111618;28;20442;-78
2022/04/27 09:51:14;;;;;;;4.40;3.50;;;15.50;99.90;;;;;;5106725;28;20449;-78
2022/04/27 09:53:42;;;;;;;3.00;2.80;;;15.50;99.90;;;;;;5102339;28;20488;-78
2022/04/27 09:56:11;;;;;;;3.53;2.57;;;15.50;99.90;;;;;;5104759;28;20451;-78
2022/04/27 09:58:43;;;;;;;3.47;3.20;;;15.70;99.90;;;;;;5103396;28;20443;-78
2022/04/27 10:01:13;;;;;;;4.10;3.80;;;16.00;99.90;;;;;;5088806;28;20470;-79
2022/04/27 10:03:46;;;;;;;5.87;4.17;;;16.20;99.90;;;;;;5107681;28;20491;-79
2022/04/27 10:06:13;;;;;;;8.70;7.53;;;16.10;99.90;;;;;;5111779;28;20432;-78
2022/04/27 10:08:41;;;;;;;3.60;3.33;;;15.80;99.90;;;;;;5109035;28;20451;-76
2022/04/27 10:11:11;;;;;;;4.20;3.50;;;15.70;99.90;;;;;;5110715;28;20595;-78
2022/04/27 10:13:39;;;;;;;5.00;3.80;;;15.50;99.90;;;;;;5114035;28;20458;-78
2022/04/27 10:16:06;;;;;;;3.33;3.03;;;15.30;99.90;;;;;;5112542;28;20494;-78
2022/04/27 10:18:32;;;;;;;8.03;4.20;;;15.30;99.90;;;;;;5112359;28;20558;-78
2022/04/27 10:21:04;;;;;;;4.47;3.90;;;15.40;1.00;;;;;;5112147;28;20434;-78
2022/04/27 10:23:32;;;;;;;5.00;2.80;;;15.50;99.90;;;;;;5109484;28;20550;-77
2022/04/27 10:26:15;;;;;;;2.90;2.53;;;15.80;99.90;;;;;;5109047;28;20450;-79
2022/04/27 10:28:46;;;;;;;2.90;2.70;;;15.70;99.90;;;;;;5107802;28;20484;-78
2022/04/27 10:31:12;;;;;;;4.10;3.10;;;15.40;99.90;;;;;;5109742;28;20458;-77
2022/04/27 10:33:44;;;;;;;3.50;2.57;;;15.50;99.90;;;;;;5108961;28;20477;-80
2022/04/27 10:36:38;;;;;;;2.73;2.53;;;15.70;99.90;;;;;;5107100;28;20427;-79
2022/04/27 10:39:19;;;;;;;3.20;3.00;;;16.10;99.90;;;;;;5108554;28;20430;-79
2022/04/27 10:41:55;;;;;;;2.80;2.60;;;15.70;1.00;;;;;;5105064;28;20958;-78
2022/04/27 10:44:22;;;;;;;6.20;2.40;;;15.90;1.00;;;;;;5085200;22;21020;-78
2022/04/27 10:46:49;;;;;;;3.10;2.37;;;15.80;99.90;;;;;;5058412;28;20441;-78
2022/04/27 10:49:47;;;;;;;3.43;3.10;;;15.80;99.90;;;;;;5062649;28;20445;-80
2022/04/27 10:52:16;;;;;;;2.40;2.20;;;16.00;99.90;;;;;;5060430;28;21006;-81
2022/04/27 10:54:43;;;;;;;3.27;3.07;;;15.90;1.00;;;;;;5058339;28;20472;-78
2022/04/27 10:57:41;;;;;;;3.40;2.67;;;15.70;99.90;;;;;;5061855;28;20460;-80
2022/04/27 11:00:11;;;;;;;3.43;2.53;;;15.90;99.90;;;;;;5067537;28;20472;-80
2022/04/27 11:02:39;;;;;;;2.60;2.40;;;15.90;1.00;;;;;;5065817;28;20563;-79
2022/04/27 11:05:20;;;;;;;7.70;3.30;;;16.40;1.00;;;;;;5068348;28;20933;-80
2022/04/27 11:07:55;;;;;;;4.30;3.00;;;16.80;1.00;;;;;;5069499;28;20420;-78
2022/04/27 11:10:24;;;;;;;3.17;2.90;;;16.80;99.90;;;;;;5053365;28;20444;-80
2022/04/27 11:12:52;;;;;;;2.83;2.53;;;17.10;99.90;;;;;;5070669;28;20496;-82
2022/04/27 11:15:22;;;;;;;2.70;2.50;;;17.50;1.00;;;;;;5069219;28;20449;-82
2022/04/27 11:17:55;;;;;;;2.50;2.37;;;16.10;99.90;;;;;;5071251;28;20438;-79
2022/04/27 11:20:27;;;;;;;2.50;2.30;;;16.80;99.90;;;;;;5070365;28;20476;-81
2022/04/27 11:22:56;;;;;;;3.90;2.90;;;16.80;99.90;;;;;;5059104;28;20503;-79
2022/04/27 11:25:28;;;;;;;2.60;2.40;;;16.70;99.90;;;;;;5059617;28;20457;-79
2022/04/27 11:27:55;;;;;;;3.10;2.70;;;;;;;;;;5063389;28;20442;-78
2022/04/27 11:30:23;;;;;;;3.33;3.07;;;16.80;99.90;;;;;;5066983;28;20471;-78
2022/04/27 11:32:51;;;;;;;3.20;2.97;;;16.80;99.90;;;;;;5065680;28;20465;-79
2022/04/27 11:35:18;;;;;;;3.43;3.10;;;17.00;99.90;;;;;;5065576;28;20434;-78
2022/04/27 11:37:45;;;;;;;9.30;5.80;;;17.30;1.00;;;;;;5064935;28;20548;-77
2022/04/27 11:40:14;;;;;;;5.10;2.80;;;17.00;99.90;;;;;;5062055;28;20456;-79
2022/04/27 11:42:43;;;;;;;4.50;3.17;;;16.80;1.00;;;;;;5058660;28;20485;-79
2022/04/27 11:45:12;;;;;;;4.93;2.70;;;16.80;99.90;;;;;;5059112;28;20476;-79
2022/04/27 11:47:39;;;;;;;3.50;3.20;;;;;;;;;;5059101;28;20551;-80
2022/04/27 11:50:08;;;;;;;6.03;2.90;;;16.40;99.90;;;;;;5058990;28;20445;-80
2022/04/27 11:52:36;;;;;;;5.00;3.03;;;16.30;99.90;;;;;;5056379;28;20449;-79
2022/04/27 11:55:09;;;;;;;4.33;2.70;;;16.50;99.90;;;;;;5056999;28;20818;-79
2022/04/27 11:57:39;;;;;;;6.30;3.40;;;16.50;99.90;;;;;;5058059;28;20434;-78
2022/04/27 12:00:07;;;;;;;3.73;3.13;;;16.60;99.90;;;;;;5058149;28;20525;-78
2022/04/27 12:02:34;;;;;;;4.50;2.70;;;16.70;99.90;;;;;;5063935;28;20477;-78
2022/04/27 12:05:02;;;;;;;7.93;3.30;;;16.50;99.90;;;;;;5074413;28;20429;-78
2022/04/27 12:07:35;;;;;;;4.30;3.90;;;16.70;99.90;;;;;;5073468;28;20469;-78
2022/04/27 12:10:04;;;;;;;9.57;6.57;;;16.60;99.90;;;;;;5065131;28;20536;-78
2022/04/27 12:12:34;;;;;;;7.63;5.03;;;16.10;99.90;;;;;;5061279;28;20446;-79
2022/04/27 12:15:07;;;;;;;5.53;4.50;;;16.20;99.90;;;;;;5059904;28;20452;-79
2022/04/27 12:17:46;;;;;;;4.60;3.40;;;16.20;99.90;;;;;;5060272;28;20437;-78
2022/04/27 12:20:36;;;;;;;2.40;2.20;;;16.30;99.90;;;;;;5058877;28;20521;-79
2022/04/27 12:23:06;;;;;;;6.23;3.10;;;16.50;99.90;;;;;;5039796;28;20491;-78
2022/04/27 12:25:35;;;;;;;2.97;2.77;;;16.30;99.90;;;;;;5056865;28;20430;-79
2022/04/27 12:28:03;;;;;;;3.23;2.60;;;16.40;99.90;;;;;;5059314;28;20450;-79
2022/04/27 12:30:31;;;;;;;4.33;2.80;;;16.70;99.90;;;;;;5059948;28;20485;-77
2022/04/27 12:32:59;;;;;;;4.27;3.13;;;16.90;99.90;;;;;;5060854;28;20469;-79
2022/04/27 12:38:18;;;;;;;3.30;2.67;;;;;;;;;;5061889;28;20409;-79
2022/04/27 12:40:45;;;;;;;3.43;2.83;;;16.80;99.90;;;;;;5063657;28;20463;-79
2022/04/27 12:43:14;;;;;;;3.37;2.93;;;16.80;99.90;;;;;;5065423;28;20980;-79
2022/04/27 12:46:04;;;;;;;2.90;2.50;;;16.80;99.90;;;;;;5063602;28;20529;-78
2022/04/27 12:48:31;;;;;;;2.97;2.70;;;16.60;1.00;;;;;;5063307;28;20460;-80
2022/04/27 12:50:59;;;;;;;2.77;2.57;;;16.50;99.90;;;;;;5061454;28;20460;-80
2022/04/27 12:53:26;;;;;;;3.03;2.73;;;16.50;99.90;;;;;;5062225;28;20460;-79
2022/04/27 12:56:05;;;;;;;2.47;2.30;;;16.50;99.90;;;;;;5060987;28;20835;-80
2022/04/27 12:58:33;;;;;;;2.80;2.60;;;16.60;99.90;;;;;;5060374;28;20460;-79
2022/04/27 13:00:59;;;;;;;2.53;2.33;;;16.70;99.90;;;;;;5060784;28;20512;-80
2022/04/27 13:03:27;;;;;;;3.37;3.00;;;16.70;99.90;;;;;;5062532;28;20496;-79
2022/04/27 13:05:54;;;;;;;6.30;2.90;;;17.20;99.90;;;;;;5063965;28;20449;-78
2022/04/27 13:08:21;;;;;;;2.50;2.30;;;17.50;99.90;;;;;;5062110;28;21043;-79
2022/04/27 13:13:34;;;;;;;2.00;1.90;;;17.80;99.90;;;;;;5062534;28;20506;-77
2022/04/27 13:16:01;;;;;;;4.33;3.93;;;17.80;1.00;;;;;;5067809;28;20461;-79
2022/04/27 13:18:28;;;;;;;6.23;2.80;;;17.70;99.90;;;;;;5064533;28;20908;-79
2022/04/27 13:20:55;;;;;;;5.17;2.87;;;17.30;99.90;;;;;;5060965;28;20459;-79